createdAt,value
2019-01-02T00:00:44.565Z,10.60
2019-01-02T00:03:14.125Z,11.40
2019-01-02T00:05:43.958Z,14.67
2019-01-02T00:08:13.723Z,13.10
2019-01-02T00:10:43.602Z,11.00
2019-01-02T00:13:13.095Z,9.47
2019-01-02T00:15:42.780Z,10.43
2019-01-02T00:18:12.260Z,10.97
2019-01-02T00:20:42.004Z,12.37
2019-01-02T00:23:11.992Z,10.40
2019-01-02T00:25:41.678Z,12.67
2019-01-02T00:28:11.871Z,14.17
2019-01-02T00:30:41.408Z,12.40
2019-01-02T00:33:10.921Z,13.20
2019-01-02T00:35:40.461Z,15.17
2019-01-02T00:38:10.126Z,15.07
2019-01-02T00:40:39.645Z,13.03
2019-01-02T00:43:09.255Z,11.07
2019-01-02T00:45:38.846Z,15.07
2019-01-02T00:48:08.244Z,12.63
2019-01-02T00:50:37.949Z,12.80
2019-01-02T00:53:07.685Z,13.63
2019-01-02T00:55:37.692Z,13.50
2019-01-02T00:58:07.232Z,10.10
2019-01-02T01:00:36.589Z,12.20
2019-01-02T01:03:06.235Z,11.17
2019-01-02T01:05:36.272Z,12.07
2019-01-02T01:08:05.941Z,12.77
2019-01-02T01:10:35.576Z,12.03
2019-01-02T01:13:05.064Z,13.10
2019-01-02T01:15:34.556Z,11.00
2019-01-02T01:18:04.459Z,12.30
2019-01-02T01:20:34.197Z,12.20
2019-01-02T01:23:03.816Z,12.00
2019-01-02T01:25:33.630Z,11.00
2019-01-02T01:28:03.159Z,10.20
2019-01-02T01:30:33.022Z,11.03
2019-01-02T01:33:02.712Z,9.40
2019-01-02T01:35:32.349Z,11.13
2019-01-02T01:38:01.959Z,9.13
2019-01-02T01:40:31.536Z,8.90
2019-01-02T01:43:01.090Z,10.40
2019-01-02T01:45:31.154Z,10.10
2019-01-02T01:48:00.700Z,8.77
2019-01-02T01:50:30.190Z,8.30
2019-01-02T01:53:00.350Z,7.93
2019-01-02T01:55:29.832Z,8.10
2019-01-02T01:57:59.754Z,7.80
2019-01-02T02:00:29.307Z,8.07
2019-01-02T02:02:58.751Z,10.00
2019-01-02T02:05:28.649Z,9.23
2019-01-02T02:07:58.264Z,8.30
2019-01-02T02:10:27.887Z,8.20
2019-01-02T02:12:57.587Z,8.73
2019-01-02T02:15:27.195Z,8.93
2019-01-02T02:17:56.896Z,7.90
2019-01-02T02:20:26.510Z,7.53
2019-01-02T02:22:56.125Z,7.20
2019-01-02T02:25:26.028Z,7.37
2019-01-02T02:27:55.534Z,7.33
2019-01-02T02:30:25.366Z,8.80
2019-01-02T02:32:55.290Z,6.97
2019-01-02T02:35:24.794Z,7.13
2019-01-02T02:37:54.684Z,7.57
2019-01-02T02:40:24.359Z,7.40
2019-01-02T02:42:53.891Z,7.03
2019-01-02T02:45:23.845Z,7.93
2019-01-02T02:47:53.736Z,8.00
2019-01-02T02:50:24.121Z,8.20
2019-01-02T02:52:53.866Z,7.83
2019-01-02T02:55:23.380Z,8.50
2019-01-02T02:57:52.881Z,8.13
2019-01-02T03:00:22.567Z,8.93
2019-01-02T03:02:52.552Z,8.70
2019-01-02T03:05:22.111Z,8.43
2019-01-02T03:07:51.702Z,9.17
2019-01-02T03:10:21.425Z,8.70
2019-01-02T03:12:51.138Z,8.30
2019-01-02T03:15:21.066Z,7.63
2019-01-02T03:17:50.556Z,7.17
2019-01-02T03:20:20.042Z,6.80
2019-01-02T03:22:49.545Z,6.60
2019-01-02T03:25:19.407Z,7.53
2019-01-02T03:27:49.178Z,6.80
2019-01-02T03:30:19.200Z,6.10
2019-01-02T03:32:48.905Z,6.10
2019-01-02T03:35:18.921Z,6.90
2019-01-02T03:37:48.623Z,7.23
2019-01-02T03:40:17.535Z,7.97
2019-01-02T03:42:47.558Z,6.40
2019-01-02T03:45:18.956Z,6.60
2019-01-02T03:47:48.407Z,6.40
2019-01-02T03:50:21.066Z,5.77
2019-01-02T03:52:50.692Z,7.40
2019-01-02T03:55:20.074Z,5.80
2019-01-02T03:57:49.624Z,6.90
2019-01-02T04:00:20.529Z,7.00
2019-01-02T04:02:50.267Z,6.37
2019-01-02T04:05:22.333Z,6.00
2019-01-02T04:07:58.151Z,7.03
2019-01-02T04:10:27.661Z,6.63
2019-01-02T04:12:57.162Z,6.20
2019-01-02T04:15:26.678Z,7.10
2019-01-02T04:17:56.285Z,6.00
2019-01-02T04:20:25.789Z,6.30
2019-01-02T04:22:55.520Z,5.77
2019-01-02T04:25:25.108Z,5.57
2019-01-02T04:27:54.622Z,6.00
2019-01-02T04:30:24.226Z,5.70
2019-01-02T04:32:53.809Z,5.30
2019-01-02T04:35:23.668Z,5.80
2019-01-02T04:37:53.335Z,5.33
2019-01-02T04:40:22.758Z,6.53
2019-01-02T04:42:52.274Z,6.50
2019-01-02T04:45:21.918Z,5.00
2019-01-02T04:47:51.501Z,6.07
2019-01-02T04:50:21.010Z,6.30
2019-01-02T04:52:50.626Z,5.03
2019-01-02T04:55:20.352Z,5.27
2019-01-02T04:57:49.499Z,5.20
2019-01-02T05:00:19.282Z,5.10
2019-01-02T05:02:48.899Z,4.80
2019-01-02T05:05:18.037Z,5.40
2019-01-02T05:07:48.411Z,5.43
2019-01-02T05:10:19.911Z,4.70
2019-01-02T05:12:50.748Z,4.30
2019-01-02T05:15:19.677Z,4.70
2019-01-02T05:17:51.827Z,5.00
2019-01-02T05:20:21.155Z,5.40
2019-01-02T05:22:51.132Z,4.70
2019-01-02T05:25:21.037Z,5.00
2019-01-02T05:27:51.509Z,4.30
2019-01-02T05:30:21.613Z,4.70
2019-01-02T05:32:51.655Z,4.70
2019-01-02T05:35:21.288Z,4.10
2019-01-02T05:37:51.172Z,4.87
2019-01-02T05:40:20.739Z,4.20
2019-01-02T05:42:56.551Z,4.90
2019-01-02T05:45:26.401Z,4.67
2019-01-02T05:47:56.290Z,5.07
2019-01-02T05:50:26.033Z,4.50
2019-01-02T05:52:55.824Z,4.00
2019-01-02T05:55:25.748Z,5.03
2019-01-02T05:57:55.628Z,4.73
2019-01-02T06:00:25.445Z,4.20
2019-01-02T06:02:55.300Z,4.87
2019-01-02T06:05:27.983Z,3.60
2019-01-02T06:07:57.548Z,3.93
2019-01-02T06:10:27.552Z,3.67
2019-01-02T06:12:57.046Z,3.77
2019-01-02T06:15:26.674Z,3.80
2019-01-02T06:17:56.201Z,3.87
2019-01-02T06:20:25.670Z,4.27
2019-01-02T06:22:55.237Z,4.40
2019-01-02T06:25:24.605Z,4.27
2019-01-02T06:27:54.075Z,3.77
2019-01-02T06:30:23.495Z,4.60
2019-01-02T06:32:53.271Z,3.87
2019-01-02T06:35:22.963Z,4.20
2019-01-02T06:37:52.914Z,3.90
2019-01-02T06:40:22.454Z,3.80
2019-01-02T06:42:51.919Z,3.70
2019-01-02T06:45:21.871Z,3.70
2019-01-02T06:47:51.361Z,4.67
2019-01-02T06:50:22.220Z,5.40
2019-01-02T06:52:51.825Z,3.97
2019-01-02T06:55:21.175Z,4.33
2019-01-02T06:57:50.694Z,4.57
2019-01-02T07:00:26.479Z,3.73
2019-01-02T07:02:55.922Z,3.70
2019-01-02T07:05:25.252Z,3.80
2019-01-02T07:07:54.545Z,4.30
2019-01-02T07:10:23.944Z,4.03
2019-01-02T07:12:53.624Z,4.10
2019-01-02T07:15:23.646Z,4.30
2019-01-02T07:17:53.285Z,4.50
2019-01-02T07:20:22.784Z,3.97
2019-01-02T07:22:52.198Z,4.73
2019-01-02T07:25:21.808Z,3.50
2019-01-02T07:27:51.396Z,4.27
2019-01-02T07:30:22.108Z,3.90
2019-01-02T07:32:51.556Z,4.37
2019-01-02T07:35:41.928Z,3.97
2019-01-02T07:38:33.204Z,3.97
2019-01-02T07:41:25.177Z,4.10
2019-01-02T07:44:16.131Z,3.90
2019-01-02T07:47:00.395Z,3.70
2019-01-02T07:49:39.192Z,3.20
2019-01-02T07:52:36.348Z,3.17
2019-01-02T07:55:29.793Z,3.50
2019-01-02T07:58:08.818Z,4.10
2019-01-02T08:00:50.277Z,3.67
2019-01-02T08:03:25.379Z,3.40
2019-01-02T08:06:06.482Z,4.03
2019-01-02T08:08:55.474Z,3.90
2019-01-02T08:11:33.874Z,3.20
2019-01-02T08:14:21.857Z,4.23
2019-01-02T08:17:15.043Z,3.10
2019-01-02T08:20:08.590Z,4.50
2019-01-02T08:22:56.301Z,3.53
2019-01-02T08:25:31.314Z,3.40
2019-01-02T08:28:22.189Z,3.47
2019-01-02T08:31:27.884Z,4.07
2019-01-02T08:34:25.834Z,4.03
2019-01-02T08:37:17.765Z,5.40
2019-01-02T08:39:45.959Z,7.43
2019-01-02T08:42:21.536Z,5.37
2019-01-02T08:45:05.926Z,5.10
2019-01-02T08:48:13.169Z,5.37
2019-01-02T08:51:04.591Z,5.70
2019-01-02T08:53:48.474Z,6.60
2019-01-02T08:56:27.111Z,7.70
2019-01-02T08:59:05.303Z,10.00
2019-01-02T09:01:47.229Z,9.80
2019-01-02T09:04:25.597Z,6.20
2019-01-02T09:07:13.392Z,9.77
2019-01-02T09:09:55.599Z,9.30
2019-01-02T09:12:44.681Z,6.07
2019-01-02T09:15:16.905Z,6.17
2019-01-02T09:18:00.913Z,5.13
2019-01-02T09:20:48.659Z,5.83
2019-01-02T09:23:37.351Z,5.70
2019-01-02T09:26:24.720Z,5.77
2019-01-02T09:31:34.071Z,6.20
2019-01-02T09:34:19.182Z,6.63
2019-01-02T09:36:57.120Z,7.40
2019-01-02T09:39:44.534Z,8.47
2019-01-02T09:42:23.236Z,11.80
2019-01-02T09:45:10.726Z,15.70
2019-01-02T09:47:55.788Z,7.80
2019-01-02T09:50:47.553Z,7.17
2019-01-02T09:53:34.719Z,5.80
2019-01-02T09:56:09.566Z,9.63
2019-01-02T09:59:07.827Z,6.67
2019-01-02T10:01:59.511Z,5.83
2019-01-02T10:04:31.556Z,14.37
2019-01-02T10:07:06.239Z,10.73
2019-01-02T10:10:05.430Z,7.50
2019-01-02T10:12:46.714Z,6.03
2019-01-02T10:15:28.083Z,5.67
2019-01-02T10:18:09.603Z,5.30
2019-01-02T10:20:44.386Z,5.77
2019-01-02T10:23:30.850Z,5.90
2019-01-02T10:26:21.689Z,6.27
2019-01-02T10:29:03.203Z,14.83
2019-01-02T10:31:53.894Z,11.30
2019-01-02T10:34:34.984Z,13.23
2019-01-02T10:37:10.251Z,12.13
2019-01-02T10:42:35.989Z,11.07
2019-01-02T10:45:32.359Z,42.57
2019-01-02T10:48:13.628Z,23.43
2019-01-02T10:50:57.481Z,12.73
2019-01-02T10:53:35.940Z,7.20
2019-01-02T10:56:19.682Z,6.30
2019-01-02T10:58:55.076Z,3.67
2019-01-02T11:01:43.664Z,2.90
2019-01-02T11:04:49.585Z,3.27
2019-01-02T11:07:43.026Z,5.07
2019-01-02T11:10:42.537Z,3.83
2019-01-02T11:13:35.884Z,3.30
2019-01-02T11:16:20.274Z,2.93
2019-01-02T11:18:55.338Z,3.47
2019-01-02T11:21:28.429Z,2.90
2019-01-02T11:24:20.027Z,4.57
2019-01-02T11:27:12.207Z,3.63
2019-01-02T11:30:02.757Z,3.00
2019-01-02T11:32:55.053Z,2.50
2019-01-02T11:35:50.697Z,2.60
2019-01-02T11:38:31.621Z,3.00
2019-01-02T11:41:19.231Z,5.03
2019-01-02T11:44:12.129Z,4.37
2019-01-02T11:46:41.718Z,3.30
2019-01-02T11:49:11.016Z,3.30
2019-01-02T11:51:40.528Z,3.00
2019-01-02T11:54:09.674Z,3.60
2019-01-02T11:56:38.995Z,3.57
2019-01-02T11:59:08.589Z,2.53
2019-01-02T12:01:37.433Z,2.50
2019-01-02T12:04:06.542Z,2.30
2019-01-02T12:06:36.446Z,3.30
2019-01-02T12:09:07.556Z,3.00
2019-01-02T12:11:36.714Z,2.60
2019-01-02T12:14:06.203Z,2.97
2019-01-02T12:16:38.410Z,2.60
2019-01-02T12:25:14.727Z,2.63
2019-01-02T12:30:34.756Z,3.00
2019-01-02T12:33:04.448Z,3.30
2019-01-02T12:35:33.821Z,2.80
2019-01-02T12:38:03.188Z,2.90
2019-01-02T12:40:32.551Z,3.10
2019-01-02T12:43:01.969Z,3.10
2019-01-02T12:45:33.809Z,3.47
2019-01-02T12:48:02.909Z,3.93
2019-01-02T12:50:32.319Z,3.50
2019-01-02T12:53:01.628Z,3.20
2019-01-02T12:55:31.260Z,3.50
2019-01-02T12:58:00.753Z,3.97
2019-01-02T13:00:32.223Z,4.47
2019-01-02T13:03:16.835Z,3.57
2019-01-02T13:05:58.544Z,4.83
2019-01-02T13:08:46.064Z,4.50
2019-01-02T13:11:18.189Z,4.53
2019-01-02T13:14:07.169Z,3.77
2019-01-02T13:17:03.424Z,5.20
2019-01-02T13:19:35.637Z,4.13
2019-01-02T13:22:23.089Z,4.30
2019-01-02T13:24:58.069Z,4.20
2019-01-02T13:27:42.481Z,4.83
2019-01-02T13:30:32.920Z,4.60
2019-01-02T13:33:29.492Z,3.80
2019-01-02T13:36:17.328Z,3.63
2019-01-02T13:38:56.734Z,5.20
2019-01-02T13:41:53.432Z,4.67
2019-01-02T13:44:28.373Z,5.20
2019-01-02T13:47:10.824Z,4.00
2019-01-02T13:49:43.215Z,4.30
2019-01-02T13:52:12.830Z,4.13
2019-01-02T13:54:42.401Z,3.83
2019-01-02T13:57:11.938Z,4.80
2019-01-02T13:59:41.652Z,4.47
2019-01-02T14:02:11.390Z,3.80
2019-01-02T14:04:41.922Z,4.37
2019-01-02T14:07:11.513Z,4.53
2019-01-02T14:09:41.005Z,4.87
2019-01-02T14:12:10.463Z,5.00
2019-01-02T14:14:40.007Z,5.63
2019-01-02T14:17:09.391Z,4.97
2019-01-02T14:19:40.139Z,5.23
2019-01-02T14:22:09.671Z,5.40
2019-01-02T14:24:39.223Z,4.70
2019-01-02T14:27:08.833Z,5.40
2019-01-02T14:29:38.432Z,5.73
2019-01-02T14:32:07.870Z,5.63
2019-01-02T14:34:37.415Z,5.77
2019-01-02T14:37:07.007Z,6.80
2019-01-02T14:39:36.453Z,5.80
2019-01-02T14:42:06.009Z,6.50
2019-01-02T14:44:35.597Z,5.90
2019-01-02T14:47:07.848Z,5.60
2019-01-02T14:49:37.394Z,6.63
2019-01-02T14:52:06.867Z,6.77
2019-01-02T14:54:36.422Z,6.87
2019-01-02T14:57:06.005Z,6.50
2019-01-02T14:59:35.579Z,5.73
2019-01-02T15:02:05.189Z,6.63
2019-01-02T15:04:34.784Z,6.60
2019-01-02T15:07:04.391Z,7.20
2019-01-02T15:09:33.738Z,7.13
2019-01-02T15:12:03.167Z,6.37
2019-01-02T15:14:32.702Z,5.77
2019-01-02T15:17:02.353Z,6.70
2019-01-02T15:19:31.909Z,6.50
2019-01-02T15:22:04.857Z,6.37
2019-01-02T15:24:32.612Z,6.60
2019-01-02T15:27:02.197Z,5.90
2019-01-02T15:29:31.721Z,7.67
2019-01-02T15:32:01.329Z,6.87
2019-01-02T15:34:31.075Z,7.40
2019-01-02T15:37:00.621Z,6.90
2019-01-02T15:39:30.283Z,7.53
2019-01-02T15:42:00.230Z,7.40
2019-01-02T15:44:29.673Z,7.00
2019-01-02T15:46:59.303Z,7.60
2019-01-02T15:49:31.077Z,7.40
2019-01-02T15:52:00.579Z,7.20
2019-01-02T15:54:30.009Z,7.33
2019-01-02T15:56:59.442Z,7.00
2019-01-02T15:59:28.965Z,6.60
2019-01-02T16:01:58.548Z,6.63
2019-01-02T16:04:28.319Z,6.03
2019-01-02T16:06:57.874Z,7.43
2019-01-02T16:09:27.501Z,7.80
2019-01-02T16:11:57.115Z,8.37
2019-01-02T16:14:26.878Z,8.00
2019-01-02T16:16:56.421Z,8.53
2019-01-02T16:19:26.094Z,8.07
2019-01-02T16:21:55.607Z,8.57
2019-01-02T16:24:31.404Z,9.57
2019-01-02T16:27:01.358Z,9.00
2019-01-02T16:29:31.266Z,10.17
2019-01-02T16:32:01.112Z,10.70
2019-01-02T16:34:31.092Z,11.00
2019-01-02T16:37:01.077Z,9.90
2019-01-02T16:39:31.016Z,11.00
2019-01-02T16:41:59.552Z,10.87
2019-01-02T16:44:29.449Z,11.83
2019-01-02T16:46:59.139Z,13.07
2019-01-02T16:49:28.806Z,21.53
2019-01-02T16:52:01.038Z,24.60
2019-01-02T16:54:30.366Z,16.00
2019-01-02T16:56:59.859Z,14.63
2019-01-02T16:59:29.377Z,12.53
2019-01-02T17:01:58.337Z,12.80
2019-01-02T17:04:28.030Z,14.30
2019-01-02T17:06:57.875Z,14.33
2019-01-02T17:09:27.231Z,14.13
2019-01-02T17:11:56.991Z,14.40
2019-01-02T17:14:26.401Z,14.50
2019-01-02T17:16:55.789Z,14.70
2019-01-02T17:19:25.322Z,14.50
2019-01-02T17:21:55.142Z,15.40
2019-01-02T17:24:24.694Z,14.40
2019-01-02T17:26:54.205Z,14.00
2019-01-02T17:29:23.947Z,15.17
2019-01-02T17:31:53.306Z,14.23
2019-01-02T17:34:22.822Z,14.43
2019-01-02T17:36:52.370Z,16.37
2019-01-02T17:39:22.059Z,19.73
2019-01-02T17:41:52.122Z,16.07
2019-01-02T17:44:21.847Z,25.57
2019-01-02T17:46:51.683Z,32.30
2019-01-02T17:49:21.096Z,26.03
2019-01-02T17:51:50.999Z,19.37
2019-01-02T17:54:23.158Z,21.40
2019-01-02T17:56:53.213Z,25.00
2019-01-02T17:59:23.190Z,23.10
2019-01-02T18:01:52.336Z,27.80
2019-01-02T18:04:21.808Z,30.47
2019-01-02T18:06:51.393Z,26.37
2019-01-02T18:09:21.041Z,29.97
2019-01-02T18:11:50.656Z,26.20
2019-01-02T18:14:20.697Z,21.10
2019-01-02T18:16:49.953Z,21.50
2019-01-02T18:19:19.040Z,18.90
2019-01-02T18:21:48.382Z,18.63
2019-01-02T18:24:18.654Z,21.10
2019-01-02T18:26:47.719Z,21.90
2019-01-02T18:29:17.382Z,18.90
2019-01-02T18:31:47.004Z,16.50
2019-01-02T18:34:16.149Z,14.00
2019-01-02T18:36:46.261Z,15.03
2019-01-02T18:39:15.918Z,17.57
2019-01-02T18:41:45.512Z,15.60
2019-01-02T18:44:20.411Z,14.40
2019-01-02T18:46:46.895Z,12.47
2019-01-02T18:49:16.692Z,13.70
2019-01-02T18:51:47.933Z,15.93
2019-01-02T18:54:18.018Z,13.07
2019-01-02T18:56:50.264Z,12.30
2019-01-02T18:59:25.466Z,13.57
2019-01-02T19:16:38.874Z,16.27
2019-01-02T19:27:17.565Z,18.73
2019-01-02T19:29:56.694Z,18.57
2019-01-02T19:32:28.714Z,17.90
2019-01-02T19:35:15.805Z,18.23
2019-01-02T19:37:33.354Z,17.73
2019-01-02T19:40:04.744Z,17.07
2019-01-02T19:43:14.413Z,21.60
2019-01-02T20:30:21.899Z,21.23
2019-01-02T20:36:04.813Z,29.03
2019-01-02T20:47:55.254Z,35.93
2019-01-02T20:50:25.993Z,26.93
2019-01-02T20:52:55.968Z,28.67
2019-01-02T20:55:29.933Z,21.07
2019-01-02T20:58:00.330Z,25.60
2019-01-02T21:00:30.337Z,29.33
2019-01-02T22:30:56.876Z,20.80
2019-01-02T22:33:26.952Z,24.57
2019-01-02T22:35:56.859Z,28.30
2019-01-02T22:38:26.989Z,31.70
2019-01-02T22:40:56.751Z,22.60
2019-01-02T22:43:26.452Z,29.60
2019-01-02T22:45:56.380Z,27.37
2019-01-02T22:48:26.207Z,40.10
2019-01-02T22:50:55.884Z,21.40
2019-01-02T22:53:25.692Z,19.60
2019-01-02T22:55:55.405Z,19.87
2019-01-02T22:58:25.368Z,20.40
2019-01-02T23:01:03.300Z,19.97
2019-01-02T23:03:40.950Z,18.83
2019-01-02T23:06:29.466Z,20.67
2019-01-02T23:09:18.471Z,21.87
2019-01-02T23:12:06.424Z,26.90
2019-01-02T23:14:44.331Z,23.50
2019-01-02T23:17:32.505Z,21.67
2019-01-02T23:20:21.442Z,20.23
2019-01-02T23:22:55.020Z,19.40
2019-01-02T23:25:44.824Z,16.30
2019-01-02T23:28:33.050Z,18.47
2019-01-02T23:31:16.571Z,17.67
2019-01-02T23:34:04.612Z,16.50
2019-01-02T23:36:42.244Z,15.77
2019-01-02T23:39:13.645Z,16.63
2019-01-02T23:42:03.540Z,17.97
2019-01-02T23:44:35.028Z,18.63
2019-01-02T23:47:15.503Z,20.00
2019-01-02T23:49:47.019Z,17.33
2019-01-02T23:52:18.397Z,21.23
2019-01-02T23:54:49.660Z,21.00
2019-01-02T23:57:21.171Z,21.57
2019-01-02T23:59:52.471Z,21.43
